Archival Weather

Chandler Muni

Chandler, Arizona (KCHD)

Report from: Wednesday, December 6, 2023 4:47 PM MST
Current time: Tuesday, April 23, 2024 12:29 AM MST

Current weather – Weather history – Daily summaries
Weather forecast

Temperature27.0°C (80.6°F)
Heat index26.3°C (79.3°F)
Dew point0.0°C (32.0°F)
Winds 6 kts (3.1 m/s, 6.9 mph) Southwest (230°)
Visibility10 mi. (16.1 km)
Clouds Sky clear
Altimeter29.99 in.Hg (1016 mB)
Relative humidity17 %
Density altitude1,404 ft. (428 m)
Flight conditions Visual Meteorological Conditions
Raw dataKCHD 062347Z 23006KT 10SM CLR 27/00 A2999
An error has occurred. This application may no longer respond until reloaded. Reload 🗙